CheckWX is a tool to help pilots better visualize weather data.  It is not intended as a substitute for an official pre-flight weather briefing.

01:21:32 UTC

KSDY TAF
Sidney-Richland Regional Airport
Sidney, Montana, USA
KSDY 192321Z 2000/2024 29015KT P6SM SKC FM200500 32011KT P6SM SKC FM200800 35009KT P6SM SKC FM201300 02008KT P6SM SKC FM201700 07009KT P6SM FEW100

Aug-20@
00:00 UTC

Aug-20 @ 00:00 UTC

Aug-20@
05:00 UTC

Aug-20 @ 05:00 UTC

KSDY 192321Z 2000/2024 29015KT P6SM SKC
Wind
  • 290° at 15 KTS
Cloud Levels
  • Clear skies

Aug-20@
05:00 UTC

Aug-20 @ 05:00 UTC

Aug-20@
08:00 UTC

Aug-20 @ 08:00 UTC

FM200500 32011KT P6SM SKC

From

From Standard forecast or significant change

Wind
  • 320° at 11 KTS
Cloud Levels
  • Clear skies

Aug-20@
08:00 UTC

Aug-20 @ 08:00 UTC

Aug-20@
13:00 UTC

Aug-20 @ 13:00 UTC

FM200800 35009KT P6SM SKC

From

From Standard forecast or significant change

Wind
  • 350° at 9 KTS
Cloud Levels
  • Clear skies

Aug-20@
13:00 UTC

Aug-20 @ 13:00 UTC

Aug-20@
17:00 UTC

Aug-20 @ 17:00 UTC

FM201300 02008KT P6SM SKC

From

From Standard forecast or significant change

Wind
  • 020° at 8 KTS
Cloud Levels
  • Clear skies

Aug-20@
17:00 UTC

Aug-20 @ 17:00 UTC

Aug-21@
00:00 UTC

Aug-21 @ 00:00 UTC

FM201700 07009KT P6SM FEW100

From

From Standard forecast or significant change

Wind
  • 070° at 9 KTS
Cloud Levels
  • Few at 10,000' AGL